Time;durP1;ratioP1;P1;durP2;ratioP2;P2;SDS_P1;SDS_P2;PMS_P1;PMS_P2;Temp;Humidity;BMP_temperature;BMP_pressure;BME280_temperature;BME280_humidity;BME280_pressure;Samples;Min_cycle;Max_cycle;Signal;HPM_P1;HPM_P2
2023/12/19 00:00:38;;;;;;;17.40;10.30;;;;;;;8.97;75.39;100643.77;108085;1256;72672;-65
2023/12/19 00:03:05;;;;;;;14.70;10.00;;;;;;;8.89;75.86;100644.47;108031;1254;62136;-63
2023/12/19 00:05:33;;;;;;;13.70;8.60;;;;;;;8.99;75.44;100648.98;108114;1253;59478;-66
2023/12/19 00:08:00;;;;;;;15.90;8.70;;;;;;;8.98;75.26;100645.67;108200;1253;72184;-67
2023/12/19 00:10:28;;;;;;;12.80;8.70;;;;;;;8.94;75.50;100635.08;108001;1258;68768;-65
2023/12/19 00:12:55;;;;;;;17.00;10.10;;;;;;;9.05;75.19;100635.20;108078;1253;72699;-65
2023/12/19 00:15:23;;;;;;;12.80;9.10;;;;;;;9.05;75.28;100636.25;108061;1253;60917;-65
2023/12/19 00:17:51;;;;;;;15.40;9.50;;;;;;;8.94;75.79;100637.70;108019;1258;60032;-66
2023/12/19 00:20:18;;;;;;;14.40;9.60;;;;;;;8.98;75.83;100634.46;108051;1253;71821;-67
2023/12/19 00:22:46;;;;;;;13.50;8.80;;;;;;;8.98;75.83;100634.98;108028;1253;70092;-66
2023/12/19 00:25:13;;;;;;;15.00;10.10;;;;;;;8.95;76.10;100634.17;108074;1253;71128;-66
2023/12/19 00:27:41;;;;;;;15.10;9.20;;;;;;;9.02;75.98;100634.20;108067;1253;60367;-68
2023/12/19 00:30:09;;;;;;;12.10;8.70;;;;;;;9.07;75.63;100629.54;107959;1253;60488;-65
2023/12/19 00:32:36;;;;;;;15.20;9.10;;;;;;;9.08;75.59;100629.52;108140;1253;71555;-67
2023/12/19 00:35:05;;;;;;;12.10;8.70;;;;;;;9.05;75.76;100630.80;108058;1253;68714;-63
2023/12/19 00:37:32;;;;;;;12.40;8.50;;;;;;;8.98;76.03;100626.23;108153;1253;72917;-67
2023/12/19 00:40:00;;;;;;;13.00;8.80;;;;;;;9.02;75.87;100626.66;108015;1253;60842;-68
2023/12/19 00:42:27;;;;;;;12.10;8.40;;;;;;;9.10;75.80;100630.00;107880;1253;59495;-67
2023/12/19 00:44:55;;;;;;;14.30;8.90;;;;;;;9.09;75.69;100631.09;108017;1253;74138;-67
2023/12/19 00:47:22;;;;;;;9.50;7.30;;;;;;;9.05;75.91;100633.43;108089;1253;68753;-66
2023/12/19 00:49:50;;;;;;;12.50;8.20;;;;;;;9.01;76.03;100634.05;107997;1253;70480;-66
2023/12/19 00:52:18;;;;;;;12.20;9.00;;;;;;;9.02;76.12;100632.80;108042;1254;59710;-66
2023/12/19 00:54:45;;;;;;;14.10;8.00;;;;;;;9.02;76.15;100627.89;108074;1253;59428;-65
2023/12/19 00:57:13;;;;;;;12.60;7.70;;;;;;;8.96;76.47;100624.00;108084;1253;72264;-67
2023/12/19 00:59:40;;;;;;;12.10;7.80;;;;;;;8.85;76.94;100622.13;108057;1253;69345;-65
2023/12/19 01:02:08;;;;;;;13.90;8.50;;;;;;;8.97;76.36;100618.39;107991;1253;71968;-66
2023/12/19 01:04:36;;;;;;;13.90;8.30;;;;;;;8.97;76.28;100611.89;108101;1253;60869;-66
2023/12/19 01:07:03;;;;;;;12.60;7.50;;;;;;;9.01;76.18;100616.36;108121;1253;60213;-67
2023/12/19 01:09:31;;;;;;;10.80;7.60;;;;;;;9.01;76.03;100613.38;107947;1253;72641;-68
2023/12/19 01:11:59;;;;;;;13.20;7.40;;;;;;;8.92;76.45;100611.65;108066;1253;69234;-67
2023/12/19 01:14:26;;;;;;;12.00;8.00;;;;;;;8.80;77.18;100608.95;107958;1253;72004;-66
2023/12/19 01:16:53;;;;;;;12.10;8.20;;;;;;;8.82;77.04;100604.70;108008;1253;60893;-66
2023/12/19 01:19:21;;;;;;;17.70;9.50;;;;;;;8.83;77.07;100599.08;108039;1253;60524;-65
2023/12/19 01:21:49;;;;;;;23.50;10.30;;;;;;;8.87;76.92;100597.25;108063;1253;72646;-66
2023/12/19 01:24:16;;;;;;;20.30;10.00;;;;;;;8.96;76.43;100596.52;108045;1253;68781;-67
2023/12/19 01:26:44;;;;;;;22.50;10.70;;;;;;;8.90;76.90;100596.13;107945;1254;72462;-66
2023/12/19 01:29:12;;;;;;;26.80;11.10;;;;;;;8.88;76.96;100594.08;107973;1253;61459;-65
2023/12/19 01:31:40;;;;;;;21.80;10.40;;;;;;;8.91;76.86;100589.61;107990;1253;62134;-66
2023/12/19 01:34:07;;;;;;;17.70;10.10;;;;;;;8.95;76.65;100583.22;107975;1253;72924;-66
2023/12/19 01:36:37;;;;;;;18.70;9.40;;;;;;;8.95;76.63;100577.27;108111;1253;70596;-66
2023/12/19 01:39:05;;;;;;;15.50;9.50;;;;;;;8.98;76.46;100573.33;107990;1253;72070;-64
2023/12/19 01:41:32;;;;;;;13.10;8.90;;;;;;;8.99;76.45;100570.52;107972;1253;60809;-65
2023/12/19 01:44:00;;;;;;;13.70;8.30;;;;;;;8.99;76.29;100565.27;108033;1253;60423;-65
2023/12/19 01:46:28;;;;;;;13.60;8.30;;;;;;;8.90;76.60;100557.78;108002;1253;74256;-66
2023/12/19 01:48:57;;;;;;;15.40;8.90;;;;;;;8.85;76.83;100554.73;108018;1256;69980;-64
2023/12/19 01:51:24;;;;;;;13.60;8.10;;;;;;;8.81;77.02;100554.30;107959;1256;71825;-65
2023/12/19 01:53:52;;;;;;;13.60;8.30;;;;;;;8.80;77.05;100557.64;107891;1256;60317;-66
2023/12/19 01:56:20;;;;;;;11.40;8.30;;;;;;;8.66;77.44;100553.95;107886;1254;60204;-65
2023/12/19 01:58:47;;;;;;;10.60;7.90;;;;;;;8.68;77.84;100557.58;107726;1256;73883;-67
2023/12/19 02:01:15;;;;;;;12.20;8.10;;;;;;;8.76;77.34;100563.35;107932;1261;69969;-66
2023/12/19 02:03:43;;;;;;;14.20;9.70;;;;;;;8.83;77.10;100566.52;107874;1259;72934;-67
2023/12/19 02:06:10;;;;;;;10.80;7.70;;;;;;;8.87;77.01;100556.62;108111;1255;60304;-67
2023/12/19 02:08:38;;;;;;;11.60;8.60;;;;;;;8.95;76.54;100551.70;107985;1256;60032;-67
2023/12/19 02:11:05;;;;;;;13.50;9.10;;;;;;;8.95;76.57;100548.55;108007;1256;72637;-66
2023/12/19 02:13:33;;;;;;;12.40;9.10;;;;;;;8.98;76.37;100553.19;107980;1260;69989;-64
2023/12/19 02:16:00;;;;;;;12.70;8.50;;;;;;;9.01;76.18;100557.35;107949;1256;72734;-66
2023/12/19 02:18:28;;;;;;;11.50;7.30;;;;;;;9.02;76.23;100558.19;107946;1259;60645;-65
2023/12/19 02:20:56;;;;;;;12.80;8.60;;;;;;;9.10;75.83;100555.55;107940;1256;60726;-66
2023/12/19 02:23:24;;;;;;;14.00;8.40;;;;;;;9.12;75.69;100552.00;108029;1254;73795;-66
2023/12/19 02:25:51;;;;;;;10.30;7.50;;;;;;;9.17;75.39;100551.89;107927;1254;72687;-66
2023/12/19 02:28:19;;;;;;;11.50;7.90;;;;;;;9.17;75.43;100552.23;107908;1256;72710;-66
2023/12/19 02:30:46;;;;;;;12.00;7.80;;;;;;;9.04;75.95;100544.67;107931;1253;60300;-65
2023/12/19 02:33:14;;;;;;;12.80;7.90;;;;;;;8.94;76.22;100548.76;108054;1258;60332;-66
2023/12/19 02:35:41;;;;;;;13.00;8.70;;;;;;;8.97;76.09;100543.08;108034;1253;72567;-66
2023/12/19 02:38:09;;;;;;;12.40;8.40;;;;;;;8.85;76.44;100538.61;108054;1253;70276;-67
2023/12/19 02:40:36;;;;;;;14.60;9.50;;;;;;;8.74;76.81;100545.38;107971;1254;71553;-67
2023/12/19 02:43:04;;;;;;;12.20;8.90;;;;;;;8.60;77.40;100545.66;108088;1253;60487;-66
2023/12/19 02:45:33;;;;;;;14.20;9.30;;;;;;;8.63;77.53;100542.46;108036;1253;60308;-67
2023/12/19 02:48:01;;;;;;;15.90;8.70;;;;;;;8.71;77.22;100537.20;108086;1253;72632;-67
2023/12/19 02:50:28;;;;;;;10.60;8.20;;;;;;;8.67;77.24;100540.79;108053;1253;68993;-67
2023/12/19 02:52:56;;;;;;;14.80;8.80;;;;;;;8.65;77.31;100551.16;108046;1253;72640;-66
2023/12/19 02:55:23;;;;;;;13.10;9.20;;;;;;;8.66;77.19;100560.42;107926;1254;60428;-67
2023/12/19 02:57:51;;;;;;;11.10;8.20;;;;;;;8.73;77.04;100564.82;108023;1258;60346;-66
2023/12/19 03:00:18;;;;;;;15.20;10.40;;;;;;;8.88;76.44;100565.00;107916;1253;73804;-67
2023/12/19 03:02:46;;;;;;;14.70;9.60;;;;;;;8.99;75.87;100556.86;108024;1253;70308;-67
2023/12/19 03:05:14;;;;;;;14.10;9.70;;;;;;;8.83;76.30;100549.17;108028;1253;70941;-67
2023/12/19 03:07:41;;;;;;;15.50;10.30;;;;;;;8.75;76.63;100552.70;108056;1254;61236;-67
2023/12/19 03:10:09;;;;;;;14.10;9.90;;;;;;;8.78;76.60;100552.45;108073;1258;60416;-66
2023/12/19 03:12:37;;;;;;;17.80;11.00;;;;;;;8.76;76.45;100558.44;107988;1253;73877;-67
2023/12/19 03:15:05;;;;;;;15.60;9.90;;;;;;;8.75;76.53;100561.10;107940;1253;70518;-66
2023/12/19 03:17:33;;;;;;;14.70;9.80;;;;;;;8.59;77.23;100555.66;107965;1258;72744;-67
2023/12/19 03:20:00;;;;;;;14.80;10.00;;;;;;;8.66;76.94;100555.16;107970;1253;60444;-66
2023/12/19 03:22:28;;;;;;;14.20;9.70;;;;;;;8.78;76.48;100546.48;108008;1253;60048;-66
2023/12/19 03:24:56;;;;;;;16.20;9.70;;;;;;;8.76;76.37;100551.46;107947;1253;74244;-67
2023/12/19 03:27:23;;;;;;;15.20;9.70;;;;;;;8.73;76.57;100560.79;108033;1253;69021;-66
2023/12/19 03:29:51;;;;;;;14.00;9.50;;;;;;;8.73;76.42;100556.58;107855;1256;72325;-68
2023/12/19 03:32:19;;;;;;;14.80;9.70;;;;;;;8.66;76.54;100547.82;107913;1253;60421;-67
2023/12/19 03:34:46;;;;;;;14.20;9.00;;;;;;;8.59;76.95;100547.79;108001;1253;60483;-66
2023/12/19 03:37:14;;;;;;;13.70;8.90;;;;;;;8.59;76.82;100542.55;108031;1253;73862;-67
2023/12/19 03:39:41;;;;;;;14.70;9.50;;;;;;;8.65;76.70;100541.17;108036;1253;69534;-67
2023/12/19 03:42:09;;;;;;;13.00;8.60;;;;;;;8.58;76.76;100543.79;108069;1256;71543;-67
2023/12/19 03:44:41;;;;;;;18.20;9.60;;;;;;;8.48;77.27;100545.41;107921;1258;60402;-66
2023/12/19 03:47:13;;;;;;;14.30;9.10;;;;;;;8.47;77.42;100536.52;107952;1253;60541;-67
2023/12/19 03:49:41;;;;;;;13.10;8.60;;;;;;;8.60;76.77;100532.54;107968;1253;72602;-67
2023/12/19 03:52:08;;;;;;;14.80;9.70;;;;;;;8.66;76.49;100528.73;107895;1253;69151;-67
2023/12/19 03:54:36;;;;;;;13.20;9.10;;;;;;;8.61;76.67;100530.77;108001;1253;72534;-68
2023/12/19 03:57:04;;;;;;;15.90;9.70;;;;;;;8.56;76.94;100523.71;107943;1256;60181;-68
2023/12/19 04:00:22;;;;;;;14.30;9.90;;;;;;;8.69;76.65;100513.80;107997;1253;59333;-67
2023/12/19 04:02:50;;;;;;;15.30;8.40;;;;;;;8.68;76.69;100509.45;107948;1254;73396;-67
2023/12/19 04:05:18;;;;;;;13.60;9.30;;;;;;;8.49;77.52;100508.63;107947;1254;70803;-64
2023/12/19 04:07:45;;;;;;;15.80;9.00;;;;;;;8.62;77.01;100504.14;107960;1256;72712;-68
2023/12/19 04:10:13;;;;;;;13.70;8.60;;;;;;;8.54;77.21;100497.85;107934;1256;60849;-67
2023/12/19 04:12:40;;;;;;;15.30;10.50;;;;;;;8.50;77.15;100503.89;107986;1254;60425;-67
2023/12/19 04:15:09;;;;;;;15.00;9.30;;;;;;;8.48;77.28;100509.02;107984;1256;73951;-67
2023/12/19 04:17:37;;;;;;;13.80;8.80;;;;;;;8.42;77.52;100521.73;108052;1256;70452;-69
2023/12/19 04:20:05;;;;;;;12.50;9.40;;;;;;;8.40;77.63;100516.69;107889;1255;71465;-68
2023/12/19 04:22:33;;;;;;;11.90;8.30;;;;;;;8.39;77.65;100519.52;107949;1254;60984;-66
2023/12/19 04:25:00;;;;;;;13.80;8.90;;;;;;;8.47;77.27;100517.45;107951;1256;60329;-67
2023/12/19 04:27:28;;;;;;;12.90;9.00;;;;;;;8.34;77.82;100519.08;108049;1260;72645;-66
2023/12/19 04:29:56;;;;;;;14.00;8.70;;;;;;;8.37;77.90;100517.98;108021;1254;71462;-68
2023/12/19 04:32:24;;;;;;;14.40;8.40;;;;;;;8.36;77.73;100514.01;108053;1253;71077;-67
2023/12/19 04:34:52;;;;;;;13.90;9.10;;;;;;;8.22;78.40;100520.04;108001;1253;60514;-67
2023/12/19 04:37:19;;;;;;;12.10;8.30;;;;;;;8.26;78.33;100517.52;108043;1253;60009;-67
2023/12/19 04:39:47;;;;;;;13.40;8.70;;;;;;;8.40;77.87;100506.55;108113;1253;72905;-67
2023/12/19 04:42:17;;;;;;;13.30;7.90;;;;;;;8.35;77.97;100499.48;108001;1253;69277;-66
2023/12/19 04:44:48;;;;;;;15.40;10.00;;;;;;;8.29;78.27;100498.90;107955;1253;72955;-67
2023/12/19 04:47:16;;;;;;;10.70;7.90;;;;;;;8.36;78.07;100495.42;108031;1253;60522;-66
2023/12/19 04:49:43;;;;;;;14.40;8.60;;;;;;;8.38;77.79;100495.04;108015;1253;59990;-67
2023/12/19 04:52:11;;;;;;;14.50;8.80;;;;;;;8.44;77.63;100501.23;107975;1258;72874;-68
2023/12/19 04:54:38;;;;;;;13.90;8.20;;;;;;;8.36;77.88;100504.87;108054;1253;69452;-66
2023/12/19 04:57:06;;;;;;;13.90;8.20;;;;;;;8.41;77.65;100506.02;107972;1253;72657;-66
2023/12/19 04:59:34;;;;;;;12.80;8.40;;;;;;;8.37;77.81;100497.33;107967;1253;60909;-66
2023/12/19 05:02:01;;;;;;;12.30;7.90;;;;;;;8.35;78.02;100487.58;107961;1253;59660;-68
2023/12/19 05:04:29;;;;;;;15.10;9.50;;;;;;;8.43;77.69;100474.48;107979;1253;72628;-65
2023/12/19 05:06:56;;;;;;;16.80;9.80;;;;;;;8.53;77.46;100471.29;107975;1253;69994;-67
2023/12/19 05:09:25;;;;;;;14.50;9.00;;;;;;;8.45;77.49;100467.08;107937;1253;71386;-68
2023/12/19 05:11:53;;;;;;;15.70;9.10;;;;;;;8.37;77.72;100466.52;107992;1253;60465;-67
2023/12/19 05:14:20;;;;;;;14.10;8.90;;;;;;;8.40;77.85;100460.19;108033;1253;60067;-67
2023/12/19 05:16:48;;;;;;;12.30;8.30;;;;;;;8.47;77.26;100453.74;107970;1253;72570;-67
2023/12/19 05:19:15;;;;;;;13.90;8.80;;;;;;;8.49;77.29;100453.70;108253;1253;70450;-66
2023/12/19 05:21:43;;;;;;;10.90;7.70;;;;;;;8.47;77.19;100459.86;108009;1258;72741;-65
2023/12/19 05:24:11;;;;;;;13.80;9.30;;;;;;;8.59;76.75;100458.90;108151;1258;60650;-67
2023/12/19 05:26:38;;;;;;;16.50;9.30;;;;;;;8.65;76.45;100449.30;108072;1258;60542;-65
2023/12/19 05:29:06;;;;;;;15.70;9.70;;;;;;;8.61;76.48;100435.20;107995;1253;73726;-66
2023/12/19 05:31:33;;;;;;;19.20;10.90;;;;;;;8.62;76.44;100434.14;107932;1253;70316;-68
2023/12/19 05:34:01;;;;;;;20.10;11.30;;;;;;;8.60;76.48;100423.67;107860;1254;72494;-67
2023/12/19 05:36:33;;;;;;;25.20;13.60;;;;;;;8.57;76.41;100419.91;108022;1253;61390;-67
2023/12/19 05:39:07;;;;;;;18.50;11.70;;;;;;;8.55;76.64;100415.07;107937;1253;60460;-66
2023/12/19 05:41:34;;;;;;;20.50;11.10;;;;;;;8.47;77.01;100413.68;107989;1253;71755;-65
2023/12/19 05:44:02;;;;;;;25.10;14.00;;;;;;;8.48;76.78;100408.06;107992;1253;69401;-67
2023/12/19 05:46:31;;;;;;;21.10;11.30;;;;;;;8.45;76.98;100408.29;108013;1253;71774;-67
2023/12/19 05:48:58;;;;;;;24.30;15.00;;;;;;;8.53;76.78;100414.58;107979;1253;60521;-64
2023/12/19 05:51:26;;;;;;;24.80;14.50;;;;;;;8.56;76.50;100413.63;107972;1253;58970;-67
2023/12/19 05:53:54;;;;;;;30.70;14.20;;;;;;;8.52;76.74;100417.91;107983;1253;73871;-66
2023/12/19 05:56:23;;;;;;;32.10;16.50;;;;;;;8.51;76.67;100427.92;107924;1253;69315;-65
2023/12/19 05:58:51;;;;;;;30.30;15.50;;;;;;;8.52;76.78;100426.14;108024;1255;71731;-66
2023/12/19 06:01:19;;;;;;;33.30;17.30;;;;;;;8.57;76.53;100436.54;107840;1260;60310;-67
2023/12/19 06:03:47;;;;;;;35.80;18.10;;;;;;;8.66;76.17;100443.33;107931;1253;60432;-66
2023/12/19 06:06:14;;;;;;;27.90;15.60;;;;;;;8.66;76.16;100448.58;107956;1253;73848;-67
2023/12/19 06:08:42;;;;;;;28.70;16.60;;;;;;;8.68;76.14;100446.96;107920;1253;70381;-67
2023/12/19 06:11:10;;;;;;;28.10;14.80;;;;;;;8.67;76.20;100444.89;108060;1258;72724;-66
2023/12/19 06:13:38;;;;;;;22.70;13.50;;;;;;;8.64;76.14;100436.71;107862;1253;60442;-66
2023/12/19 06:16:06;;;;;;;26.20;14.00;;;;;;;8.62;76.41;100435.54;108003;1253;60284;-68
2023/12/19 06:18:34;;;;;;;20.80;12.50;;;;;;;8.61;76.81;100432.07;107994;1253;72575;-67
2023/12/19 06:21:01;;;;;;;23.70;14.00;;;;;;;8.71;76.18;100428.16;108190;1253;68637;-66
2023/12/19 06:23:29;;;;;;;20.90;13.30;;;;;;;8.86;75.70;100434.42;108013;1258;73428;-65
2023/12/19 06:25:57;;;;;;;18.50;11.90;;;;;;;8.90;75.49;100432.59;108031;1253;60906;-66
2023/12/19 06:28:24;;;;;;;22.60;13.60;;;;;;;8.93;75.33;100419.54;108048;1254;60563;-68
2023/12/19 06:30:52;;;;;;;18.60;10.80;;;;;;;8.93;75.35;100420.06;108067;1253;72665;-67
2023/12/19 06:33:20;;;;;;;24.60;13.40;;;;;;;8.92;75.24;100413.96;108042;1253;70119;-68
2023/12/19 06:35:49;;;;;;;27.00;16.00;;;;;;;9.00;74.91;100413.57;108043;1253;75337;-66
2023/12/19 06:38:16;;;;;;;18.80;11.40;;;;;;;9.06;74.70;100416.23;108075;1258;60319;-68
2023/12/19 06:40:45;;;;;;;22.10;13.70;;;;;;;9.11;74.34;100418.20;108089;1254;60343;-66
2023/12/19 06:43:12;;;;;;;21.00;13.40;;;;;;;9.13;74.14;100416.75;107972;1254;74073;-67
2023/12/19 06:45:40;;;;;;;23.50;13.60;;;;;;;9.09;74.25;100419.14;108018;1253;68808;-66
2023/12/19 06:48:07;;;;;;;21.10;13.50;;;;;;;9.17;73.86;100420.31;107979;1258;72704;-66
2023/12/19 06:50:35;;;;;;;18.50;11.90;;;;;;;9.22;73.87;100421.95;108025;1254;60210;-68
2023/12/19 06:53:03;;;;;;;21.10;13.80;;;;;;;9.20;73.66;100417.77;107997;1254;60416;-67
2023/12/19 06:55:30;;;;;;;21.50;12.90;;;;;;;9.22;73.69;100418.60;108065;1259;73893;-67
2023/12/19 06:57:58;;;;;;;18.00;11.50;;;;;;;9.14;74.01;100406.39;108051;1258;68432;-66
2023/12/19 07:00:28;;;;;;;21.90;14.00;;;;;;;9.21;73.67;100399.54;108148;1254;72646;-66
2023/12/19 07:02:56;;;;;;;20.10;12.50;;;;;;;9.32;73.31;100386.61;107986;1256;60419;-69
2023/12/19 07:05:23;;;;;;;21.70;13.70;;;;;;;9.24;73.46;100388.76;107928;1259;60325;-66
2023/12/19 07:07:51;;;;;;;24.30;14.70;;;;;;;9.29;73.30;100387.40;108046;1255;74041;-66
2023/12/19 07:10:19;;;;;;;16.70;11.30;;;;;;;9.19;73.75;100385.77;108098;1258;68471;-67
2023/12/19 07:14:19;;;;;;;24.70;14.10;;;;;;;7.92;79.63;100402.42;104872;1290;601439;-66
2023/12/19 07:16:46;;;;;;;26.80;16.40;;;;;;;8.59;76.69;100398.67;107180;1266;60839;-67
2023/12/19 07:19:14;;;;;;;22.50;14.20;;;;;;;8.68;76.19;100396.73;107244;1270;59998;-68
2023/12/19 07:21:43;;;;;;;32.40;17.30;;;;;;;8.65;76.14;100388.58;107262;1264;72696;-67
2023/12/19 07:24:10;;;;;;;28.00;16.60;;;;;;;8.60;76.25;100385.52;107317;1263;69182;-68
2023/12/19 07:26:38;;;;;;;23.50;15.40;;;;;;;8.63;76.68;100388.79;107303;1269;71671;-68
2023/12/19 07:29:08;;;;;;;28.50;16.50;;;;;;;8.73;75.98;100391.86;107327;1262;103925;-68
2023/12/19 07:31:36;;;;;;;32.10;18.30;;;;;;;8.77;75.80;100397.19;107336;1263;60053;-67
2023/12/19 07:34:04;;;;;;;29.60;16.10;;;;;;;8.69;76.16;100395.13;107379;1263;70857;-67
2023/12/19 07:36:32;;;;;;;33.20;18.30;;;;;;;8.72;76.11;100384.02;107447;1267;70459;-67
2023/12/19 07:39:00;;;;;;;32.70;19.90;;;;;;;8.73;76.46;100373.30;107361;1263;71521;-68
2023/12/19 07:41:28;;;;;;;33.20;19.90;;;;;;;8.74;76.58;100367.14;107363;1266;61016;-67
2023/12/19 07:43:55;;;;;;;46.50;25.70;;;;;;;8.84;75.93;100358.14;107426;1262;59713;-67
2023/12/19 07:46:23;;;;;;;45.70;25.70;;;;;;;8.84;76.13;100356.39;107339;1263;72003;-67
2023/12/19 07:48:51;;;;;;;48.90;27.70;;;;;;;8.85;76.00;100353.92;107394;1263;68483;-69
2023/12/19 07:51:26;;;;;;;59.30;30.70;;;;;;;8.69;76.62;100345.05;107391;1263;71589;-68
2023/12/19 07:53:54;;;;;;;48.20;26.60;;;;;;;8.59;77.17;100336.71;107293;1266;59614;-67
2023/12/19 07:56:22;;;;;;;56.40;29.20;;;;;;;8.51;77.54;100341.64;107316;1263;59577;-67
2023/12/19 07:58:51;;;;;;;45.70;25.90;;;;;;;8.52;77.62;100339.00;107332;1264;72841;-67
2023/12/19 08:01:19;;;;;;;54.10;28.70;;;;;;;8.47;77.53;100330.20;107397;1262;70563;-68
2023/12/19 08:03:47;;;;;;;50.20;29.60;;;;;;;8.52;77.33;100325.70;107401;1264;71423;-69
2023/12/19 08:06:15;;;;;;;55.40;31.30;;;;;;;8.37;77.80;100327.10;107361;1264;59598;-68
2023/12/19 08:08:44;;;;;;;57.30;31.00;;;;;;;8.37;77.84;100328.86;107538;1259;59281;-67
2023/12/19 08:11:13;;;;;;;51.20;28.20;;;;;;;8.39;77.97;100338.10;107550;1260;71892;-65
2023/12/19 08:13:41;;;;;;;46.30;25.00;;;;;;;8.48;77.73;100336.99;107689;1261;70322;-67
2023/12/19 08:16:08;;;;;;;51.60;27.80;;;;;;;8.60;77.18;100327.25;107539;1260;71413;-69
2023/12/19 08:18:36;;;;;;;49.60;25.80;;;;;;;8.54;77.59;100320.59;107491;1261;60872;-68
2023/12/19 08:21:04;;;;;;;45.20;25.50;;;;;;;8.51;77.69;100314.35;107416;1259;59576;-68
2023/12/19 08:23:32;;;;;;;48.40;25.50;;;;;;;8.67;76.97;100308.70;107523;1260;72110;-68
2023/12/19 08:26:00;;;;;;;43.20;24.80;;;;;;;8.53;77.42;100299.23;107494;1261;70301;-68
2023/12/19 08:28:27;;;;;;;44.30;25.60;;;;;;;8.60;76.99;100296.11;107470;1260;71247;-67
2023/12/19 08:30:55;;;;;;;47.10;25.10;;;;;;;8.70;76.42;100290.59;108138;1253;60371;-68
2023/12/19 08:33:23;;;;;;;41.30;25.30;;;;;;;8.61;76.80;100292.58;108113;1253;59125;-68
2023/12/19 08:35:51;;;;;;;57.90;27.90;;;;;;;8.63;76.60;100290.42;108085;1254;72252;-68
2023/12/19 08:38:18;;;;;;;62.40;29.70;;;;;;;8.73;76.53;100283.34;108193;1254;68956;-67
2023/12/19 08:40:46;;;;;;;73.30;33.60;;;;;;;8.73;76.36;100274.92;108091;1254;71771;-67
2023/12/19 08:43:19;;;;;;;68.70;32.50;;;;;;;8.65;76.72;100267.27;108044;1253;59653;-68
2023/12/19 08:45:48;;;;;;;58.40;29.20;;;;;;;8.61;76.89;100262.80;108075;1254;59481;-68
2023/12/19 08:48:16;;;;;;;59.30;28.90;;;;;;;8.67;76.48;100254.61;108035;1252;70831;-68
2023/12/19 08:50:44;;;;;;;55.50;29.60;;;;;;;8.59;77.20;100249.75;108043;1253;69961;-69
2023/12/19 08:53:12;;;;;;;53.20;29.10;;;;;;;8.57;77.27;100245.45;108076;1253;71509;-68
2023/12/19 08:55:42;;;;;;;62.20;33.40;;;;;;;8.61;76.87;100244.43;108102;1254;60963;-68
2023/12/19 08:58:10;;;;;;;56.60;29.00;;;;;;;8.70;76.91;100251.38;108130;1254;62314;-68
2023/12/19 09:00:37;;;;;;;68.30;35.50;;;;;;;8.70;76.89;100248.60;108162;1253;72238;-67
2023/12/19 09:03:05;;;;;;;62.00;32.30;;;;;;;8.67;77.09;100244.11;108148;1254;69060;-68
2023/12/19 09:05:33;;;;;;;63.10;33.20;;;;;;;8.76;76.79;100238.60;108099;1253;72795;-68
2023/12/19 09:08:02;;;;;;;63.10;32.40;;;;;;;8.82;76.73;100238.27;108133;1253;59991;-68
2023/12/19 09:10:30;;;;;;;62.00;33.70;;;;;;;8.81;77.01;100231.30;108173;1251;59611;-67
2023/12/19 09:12:58;;;;;;;54.30;30.30;;;;;;;8.94;76.45;100226.00;108091;1253;73075;-67
2023/12/19 09:15:25;;;;;;;66.70;34.90;;;;;;;9.10;76.01;100224.33;108137;1254;69318;-67
2023/12/19 09:17:53;;;;;;;58.50;29.40;;;;;;;9.15;75.76;100224.52;108097;1254;71770;-68
2023/12/19 09:20:23;;;;;;;59.60;33.80;;;;;;;9.21;75.35;100221.21;108118;1254;59555;-68
2023/12/19 09:22:51;;;;;;;54.00;28.10;;;;;;;9.28;75.21;100226.77;108077;1253;59809;-67
2023/12/19 09:25:18;;;;;;;46.20;25.60;;;;;;;9.33;74.96;100228.18;108054;1254;73011;-67
2023/12/19 09:27:46;;;;;;;43.80;23.60;;;;;;;9.29;74.96;100227.99;108094;1254;69453;-67
2023/12/19 09:30:15;;;;;;;35.80;21.80;;;;;;;9.27;75.21;100228.56;108049;1254;71483;-69
2023/12/19 09:32:43;;;;;;;35.70;20.30;;;;;;;9.30;74.78;100230.94;108057;1254;59951;-68
2023/12/19 09:35:11;;;;;;;32.50;18.10;;;;;;;9.23;75.09;100225.17;108102;1252;59417;-68
2023/12/19 09:37:39;;;;;;;31.00;18.70;;;;;;;9.10;75.54;100220.14;108080;1254;73260;-67
2023/12/19 09:40:15;;;;;;;30.80;18.30;;;;;;;9.27;74.80;100220.48;108083;1253;69970;-67
2023/12/19 09:42:43;;;;;;;32.90;18.00;;;;;;;8.98;75.75;100218.73;108099;1253;70649;-67
2023/12/19 09:45:14;;;;;;;28.10;17.30;;;;;;;8.94;75.86;100213.58;108133;1253;61209;-66
2023/12/19 09:47:48;;;;;;;34.50;18.20;;;;;;;9.00;75.57;100205.88;108097;1253;59446;-67
2023/12/19 09:50:17;;;;;;;29.10;16.50;;;;;;;9.04;75.72;100200.86;108093;1252;71834;-67
2023/12/19 09:52:45;;;;;;;34.90;19.30;;;;;;;9.11;75.36;100192.08;108101;1254;69938;-66
2023/12/19 09:55:13;;;;;;;30.00;18.30;;;;;;;9.28;74.92;100184.89;108087;1253;72936;-67
2023/12/19 09:57:40;;;;;;;32.30;18.70;;;;;;;9.44;74.41;100177.77;108181;1253;60795;-67
2023/12/19 10:00:09;;;;;;;38.50;20.20;;;;;;;9.37;74.61;100170.96;107841;1261;61041;-68
2023/12/19 10:02:38;;;;;;;29.60;18.10;;;;;;;9.48;74.40;100160.79;108054;1254;73056;-67
2023/12/19 10:05:06;;;;;;;34.10;19.70;;;;;;;9.45;74.32;100154.41;108100;1254;71445;-67
2023/12/19 10:07:33;;;;;;;35.50;19.10;;;;;;;9.47;74.23;100150.84;107957;1253;72729;-68
2023/12/19 10:10:03;;;;;;;34.00;19.10;;;;;;;9.47;74.37;100151.55;108204;1254;60099;-68
2023/12/19 10:12:31;;;;;;;34.30;19.70;;;;;;;9.53;74.01;100146.80;108089;1253;59186;-68
2023/12/19 10:15:13;;;;;;;36.10;19.60;;;;;;;9.58;74.08;100136.27;108062;1254;75243;-68
2023/12/19 10:18:07;;;;;;;31.10;18.50;;;;;;;9.62;73.93;100124.58;108174;1254;72234;-68
2023/12/19 10:20:37;;;;;;;38.40;20.00;;;;;;;9.58;73.61;100120.89;108036;1254;72569;-68
2023/12/19 10:23:05;;;;;;;35.30;19.60;;;;;;;9.57;73.75;100125.13;108054;1253;59796;-67
2023/12/19 10:25:34;;;;;;;37.20;20.00;;;;;;;9.60;73.87;100123.25;108124;1254;60117;-68
2023/12/19 10:28:13;;;;;;;42.70;22.00;;;;;;;9.68;73.52;100109.85;108015;1254;71480;-68
2023/12/19 10:30:45;;;;;;;37.30;20.40;;;;;;;9.51;74.23;100099.52;108182;1254;70156;-68
2023/12/19 10:33:14;;;;;;;40.90;22.10;;;;;;;9.58;74.17;100092.64;108202;1254;71656;-68
2023/12/19 10:35:45;;;;;;;43.20;22.50;;;;;;;9.63;74.03;100082.67;108179;1254;60306;-67
2023/12/19 10:38:13;;;;;;;42.50;21.00;;;;;;;9.64;74.19;100082.29;108142;1254;62092;-68
2023/12/19 10:40:41;;;;;;;39.80;22.20;;;;;;;9.64;73.94;100092.61;108073;1254;73426;-67
2023/12/19 10:43:08;;;;;;;40.60;21.70;;;;;;;9.66;73.71;100076.96;108129;1253;70356;-67
2023/12/19 10:45:38;;;;;;;37.60;20.40;;;;;;;9.53;74.19;100064.06;108089;1254;71516;-69
2023/12/19 10:48:06;;;;;;;42.90;23.40;;;;;;;9.61;73.96;100058.20;108149;1254;60871;-68
2023/12/19 10:50:35;;;;;;;35.00;20.20;;;;;;;9.72;73.85;100051.84;108211;1256;59270;-67
2023/12/19 10:53:03;;;;;;;43.70;22.70;;;;;;;9.79;73.44;100036.86;108150;1254;75248;-68
2023/12/19 10:55:36;;;;;;;38.40;22.60;;;;;;;9.83;73.07;100040.75;108115;1254;70428;-67
2023/12/19 12:00:35;;;;;;;54.70;30.60;;;;;;;9.78;73.26;100010.42;104744;1292;601633;-68
2023/12/19 12:03:07;;;;;;;53.30;28.80;;;;;;;9.79;73.44;100015.66;107158;1267;60123;-67
2023/12/19 12:05:36;;;;;;;45.10;24.80;;;;;;;9.86;73.10;100016.29;107113;1266;59145;-68
2023/12/19 12:08:05;;;;;;;52.70;29.30;;;;;;;9.88;72.79;100013.39;107193;1267;74517;-67
2023/12/19 12:10:32;;;;;;;46.30;25.00;;;;;;;9.83;73.07;100003.60;107991;1255;70658;-68
2023/12/19 12:13:02;;;;;;;51.20;27.80;;;;;;;9.81;73.06;100002.45;107891;1259;72442;-68
2023/12/19 12:15:30;;;;;;;55.20;30.10;;;;;;;9.90;72.67;99997.03;107992;1253;60103;-68
2023/12/19 12:18:04;;;;;;;52.50;26.90;;;;;;;9.97;72.47;99994.86;108239;1254;58947;-68
2023/12/19 12:20:34;;;;;;;60.00;29.20;;;;;;;10.01;72.05;99987.66;108263;1254;74489;-67